Terminal Aerodrome Forecast
Issued by NWS Portland, ME

Home | Current Version | Previous Version | Text Only | Print | Product List | Glossary On
Versions: 1 2 3 4 5 6 7 8 9 10 11 12 13 14 15 16 17 18 19 20 21
000
FTUS41 KGYX 190557 AAA
TAFPWM
TAF AMD
KPWM 190557Z 1906/2006 33005KT P6SM OVC005
      TEMPO 1908/1911 3SM BR OVC004
     FM191300 35004KT 6SM BR OVC015
     FM191700 19008KT P6SM SCT040
     FM200200 28003KT P6SM SCT040=

USA.gov is the U.S. government's official web portal to all federal, state and local government web resources and services.